Time;durP1;ratioP1;P1;durP2;ratioP2;P2;SDS_P1;SDS_P2;PMS_P1;PMS_P2;Temp;Humidity;BMP_temperature;BMP_pressure;BME280_temperature;BME280_humidity;BME280_pressure;Samples;Min_cycle;Max_cycle;Signal;HPM_P1;HPM_P2
2022/06/12 00:01:09;;;;;;;10.03;7.77;;;;;;;;;;779086;179;915379;-75
2022/06/12 00:03:35;;;;;;;7.87;6.83;;;;;;;;;;784146;179;915266;-74
2022/06/12 00:06:01;;;;;;;11.63;6.55;;;;;;;;;;776012;179;915330;-75
2022/06/12 00:08:27;;;;;;;7.60;6.80;;;;;;;;;;775453;179;915157;-75
2022/06/12 00:10:53;;;;;;;12.43;6.50;;;;;;;;;;777055;179;1017172;-75
2022/06/12 00:13:18;;;;;;;7.60;6.27;;;;;;;;;;777966;179;812837;-75
2022/06/12 00:15:44;;;;;;;7.53;6.80;;;;;;;;;;778648;176;915600;-75
2022/06/12 00:18:10;;;;;;;7.45;6.65;;;;;;;;;;780505;178;916107;-75
2022/06/12 00:20:36;;;;;;;8.13;7.33;;;;;;;;;;787237;178;914493;-75
2022/06/12 00:23:02;;;;;;;7.77;6.80;;;;;;;;;;781179;178;920588;-75
2022/06/12 00:25:28;;;;;;;11.43;6.57;;;;;;;;;;780875;178;916206;-76
2022/06/12 00:27:53;;;;;;;7.80;6.00;;;;;;;;;;785822;178;915279;-74
2022/06/12 00:30:20;;;;;;;7.07;5.82;;;;;;;;;;780221;178;915781;-74
2022/06/12 00:32:49;;;;;;;11.33;6.60;;;;;;;;;;781456;178;916765;-76
2022/06/12 00:35:12;;;;;;;8.85;7.18;;;;;;;;;;780143;178;919131;-74
2022/06/12 00:37:38;;;;;;;8.97;6.90;;;;;;;;;;779208;179;914039;-75
2022/06/12 00:40:04;;;;;;;10.30;7.30;;;;;;;;;;776796;179;917746;-75
2022/06/12 00:42:31;;;;;;;10.03;6.63;;;;;;;;;;775780;179;923410;-74
2022/06/12 00:44:57;;;;;;;8.37;6.33;;;;;;;;;;782314;179;919795;-75
2022/06/12 00:47:23;;;;;;;6.30;5.70;;;;;;;;;;780289;179;919459;-75
2022/06/12 00:49:49;;;;;;;7.97;6.43;;;;;;;;;;780338;179;919299;-75
2022/06/12 00:52:14;;;;;;;8.93;5.70;;;;;;;;;;783876;179;920218;-75
2022/06/12 00:54:40;;;;;;;7.63;6.77;;;;;;;;;;777346;179;921099;-75
2022/06/12 00:57:06;;;;;;;7.20;6.47;;;;;;;;;;776739;180;949653;-75
2022/06/12 00:59:33;;;;;;;8.02;6.95;;;;;;;;;;778938;179;918985;-72
2022/06/12 01:01:59;;;;;;;6.77;6.07;;;;;;;;;;774300;180;913697;-75
2022/06/12 01:06:56;;;;;;;7.35;6.50;;;;;;;;;;776171;179;919625;-75
2022/06/12 01:09:24;;;;;;;10.70;6.63;;;;;;;;;;781303;180;919077;-74
2022/06/12 01:11:48;;;;;;;8.97;7.17;;;;;;;;;;779808;179;915775;-77
2022/06/12 01:14:14;;;;;;;8.07;6.47;;;;;;;;;;778743;179;918669;-75
2022/06/12 01:16:45;;;;;;;6.67;6.07;;;;;;;;;;776746;179;915432;-73
2022/06/12 01:19:06;;;;;;;7.70;6.77;;;;;;;;;;777609;179;915275;-75
2022/06/12 01:21:35;;;;;;;8.60;6.70;;;;;;;;;;778637;179;914507;-76
2022/06/12 01:24:18;;;;;;;7.10;6.32;;;;;;;;;;774665;179;1223264;-75
2022/06/12 01:26:46;;;;;;;8.33;6.07;;;;;;;;;;771538;179;926176;-75
2022/06/12 01:29:15;;;;;;;8.10;5.73;;;;;;;;;;785382;177;912942;-75
2022/06/12 01:31:46;;;;;;;7.03;5.97;;;;;;;;;;780921;178;912977;-75
2022/06/12 01:34:25;;;;;;;8.53;6.73;;;;;;;;;;779765;178;918846;-75
2022/06/12 01:36:53;;;;;;;12.17;6.40;;;;;;;;;;779154;178;911512;-76
2022/06/12 01:39:19;;;;;;;9.73;5.93;;;;;;;;;;779570;178;912083;-75
2022/06/12 01:41:45;;;;;;;8.20;7.00;;;;;;;;;;785246;178;918382;-74
2022/06/12 01:44:11;;;;;;;6.90;5.80;;;;;;;;;;781588;178;918874;-74
2022/06/12 01:46:53;;;;;;;7.63;5.67;;;;;;;;;;777204;178;922695;-74
2022/06/12 01:49:36;;;;;;;10.95;6.60;;;;;;;;;;779632;179;918887;-73
2022/06/12 01:52:11;;;;;;;8.20;7.40;;;;;;;;;;778817;179;919025;-74
2022/06/12 01:54:37;;;;;;;7.67;6.87;;;;;;;;;;776957;179;1009817;-75
2022/06/12 01:57:03;;;;;;;12.65;7.40;;;;;;;;;;785060;179;923128;-76
2022/06/12 01:59:38;;;;;;;10.13;6.47;;;;;;;;;;778172;179;947156;-74
2022/06/12 02:02:01;;;;;;;8.20;6.57;;;;;;;;;;777953;179;919512;-74
2022/06/12 02:04:38;;;;;;;8.10;6.40;;;;;;;;;;778315;179;915577;-74
2022/06/12 02:07:06;;;;;;;9.40;7.60;;;;;;;;;;779345;179;917428;-74
2022/06/12 02:09:32;;;;;;;7.30;6.60;;;;;;;;;;777495;179;916368;-75
2022/06/12 02:14:31;;;;;;;12.47;8.93;;;;;;;;;;777947;179;935678;-74
2022/06/12 02:16:57;;;;;;;15.10;10.40;;;;;;;;;;784363;179;919025;-74
2022/06/12 02:19:24;;;;;;;15.90;13.13;;;;;;;;;;781656;179;918777;-75
2022/06/12 02:21:53;;;;;;;16.37;12.57;;;;;;;;;;777544;179;918946;-74
2022/06/12 02:24:18;;;;;;;19.90;13.70;;;;;;;;;;777493;179;918811;-74
2022/06/12 02:26:45;;;;;;;22.10;12.70;;;;;;;;;;783872;179;918409;-76
2022/06/12 02:29:11;;;;;;;16.53;11.17;;;;;;;;;;776674;179;1120192;-76
2022/06/12 02:31:37;;;;;;;9.25;6.87;;;;;;;;;;778118;179;919357;-76
2022/06/12 02:34:03;;;;;;;9.90;7.77;;;;;;;;;;783016;179;943590;-76
2022/06/12 02:36:29;;;;;;;7.57;5.87;;;;;;;;;;777821;179;919253;-77
2022/06/12 02:38:57;;;;;;;7.27;5.80;;;;;;;;;;778300;177;919323;-77
2022/06/12 02:41:26;;;;;;;7.05;6.32;;;;;;;;;;783085;178;918663;-75
2022/06/12 02:43:51;;;;;;;11.60;6.80;;;;;;;;;;780810;178;918957;-77
2022/06/12 02:46:17;;;;;;;7.30;6.60;;;;;;;;;;779083;178;919834;-77
2022/06/12 02:48:43;;;;;;;9.33;5.70;;;;;;;;;;778576;178;919491;-77
2022/06/12 02:51:12;;;;;;;8.83;6.10;;;;;;;;;;784718;178;917562;-77
2022/06/12 02:53:49;;;;;;;12.63;6.60;;;;;;;;;;781071;178;917109;-77
2022/06/12 02:56:16;;;;;;;6.80;6.10;;;;;;;;;;779016;178;922202;-77
2022/06/12 02:58:53;;;;;;;8.33;6.73;;;;;;;;;;778885;179;917979;-78
2022/06/12 03:01:18;;;;;;;8.63;7.17;;;;;;;;;;778145;179;918098;-77
2022/06/12 03:03:44;;;;;;;12.73;9.20;;;;;;;;;;784983;179;919000;-77
2022/06/12 03:06:10;;;;;;;9.30;6.50;;;;;;;;;;778050;179;1159039;-77
2022/06/12 03:08:36;;;;;;;11.33;8.40;;;;;;;;;;777060;179;918553;-78
2022/06/12 03:11:02;;;;;;;9.30;7.07;;;;;;;;;;784227;179;913260;-77
2022/06/12 03:13:28;;;;;;;8.50;7.10;;;;;;;;;;776839;179;917830;-77
2022/06/12 03:15:53;;;;;;;10.70;8.13;;;;;;;;;;776120;179;918842;-77
2022/06/12 03:18:20;;;;;;;9.50;8.40;;;;;;;;;;783293;179;917632;-78
2022/06/12 03:20:52;;;;;;;10.40;8.70;;;;;;;;;;779344;179;917901;-77
2022/06/12 03:23:27;;;;;;;14.90;8.90;;;;;;;;;;780086;179;913380;-77
2022/06/12 03:25:53;;;;;;;16.67;9.40;;;;;;;;;;778076;179;919589;-77
2022/06/12 03:28:23;;;;;;;13.10;9.10;;;;;;;;;;777831;179;918625;-76
2022/06/12 03:30:49;;;;;;;12.90;10.93;;;;;;;;;;783488;179;917874;-77
2022/06/12 03:33:18;;;;;;;18.23;11.23;;;;;;;;;;779911;179;920923;-76
2022/06/12 03:35:51;;;;;;;13.73;9.90;;;;;;;;;;778752;179;915799;-77
2022/06/12 03:38:27;;;;;;;19.83;12.07;;;;;;;;;;777449;179;915710;-76
2022/06/12 03:40:53;;;;;;;13.73;11.12;;;;;;;;;;780258;179;915383;-75
2022/06/12 03:43:25;;;;;;;14.47;12.00;;;;;;;;;;776585;179;1015349;-76
2022/06/12 03:45:53;;;;;;;13.90;12.40;;;;;;;;;;776548;179;915655;-75
2022/06/12 03:48:22;;;;;;;18.15;12.15;;;;;;;;;;776925;179;919168;-75
2022/06/12 03:50:58;;;;;;;21.60;12.75;;;;;;;;;;783014;179;920749;-74
2022/06/12 03:53:26;;;;;;;15.20;13.60;;;;;;;;;;780088;178;919645;-77
2022/06/12 03:58:23;;;;;;;18.17;14.80;;;;;;;;;;779273;178;917656;-76
2022/06/12 04:00:49;;;;;;;15.80;14.10;;;;;;;;;;777888;178;918319;-76
2022/06/12 04:03:18;;;;;;;19.60;15.27;;;;;;;;;;783664;178;917977;-76
2022/06/12 04:05:44;;;;;;;21.33;17.00;;;;;;;;;;777941;178;918869;-76
2022/06/12 04:08:09;;;;;;;19.43;16.00;;;;;;;;;;780388;178;918601;-76
2022/06/12 04:10:35;;;;;;;28.67;18.57;;;;;;;;;;783112;178;918656;-76
2022/06/12 04:13:01;;;;;;;25.63;19.17;;;;;;;;;;778991;179;919298;-76
2022/06/12 04:15:29;;;;;;;26.30;19.33;;;;;;;;;;778890;179;917692;-76
2022/06/12 04:17:56;;;;;;;32.53;22.42;;;;;;;;;;778028;179;927096;-76
2022/06/12 04:20:22;;;;;;;30.33;23.00;;;;;;;;;;781939;179;1020892;-74
2022/06/12 04:22:55;;;;;;;33.07;24.37;;;;;;;;;;779655;179;918172;-74
2022/06/12 04:25:20;;;;;;;41.90;30.20;;;;;;;;;;776729;179;918273;-76
2022/06/12 04:27:46;;;;;;;37.43;27.20;;;;;;;;;;777084;179;923164;-73
2022/06/12 04:30:15;;;;;;;36.40;27.37;;;;;;;;;;778727;179;917809;-74
2022/06/12 04:32:42;;;;;;;43.93;31.53;;;;;;;;;;776009;179;919430;-73
2022/06/12 04:35:08;;;;;;;43.50;29.45;;;;;;;;;;777985;179;919305;-72
2022/06/12 04:37:34;;;;;;;36.28;28.87;;;;;;;;;;783317;179;919423;-73
2022/06/12 04:40:00;;;;;;;33.67;25.57;;;;;;;;;;778970;179;918035;-72
2022/06/12 04:42:26;;;;;;;33.60;25.97;;;;;;;;;;778374;179;927206;-72
2022/06/12 04:44:52;;;;;;;31.80;24.00;;;;;;;;;;784158;179;918648;-72
2022/06/12 04:47:17;;;;;;;27.20;23.80;;;;;;;;;;778862;179;922596;-72
2022/06/12 04:49:43;;;;;;;40.38;25.92;;;;;;;;;;778501;179;998198;-72
2022/06/12 04:52:09;;;;;;;27.60;24.60;;;;;;;;;;776865;179;942001;-72
2022/06/12 04:54:35;;;;;;;33.33;24.67;;;;;;;;;;783192;179;918533;-73
2022/06/12 04:57:01;;;;;;;27.67;24.27;;;;;;;;;;776863;179;919330;-73
2022/06/12 04:59:27;;;;;;;27.70;22.80;;;;;;;;;;774905;179;1440158;-73
2022/06/12 05:01:52;;;;;;;27.83;24.45;;;;;;;;;;783160;179;914510;-72
2022/06/12 05:04:18;;;;;;;27.97;23.20;;;;;;;;;;782252;178;921209;-74
2022/06/12 05:06:44;;;;;;;29.10;22.13;;;;;;;;;;780336;178;916830;-74
2022/06/12 05:09:10;;;;;;;27.13;22.20;;;;;;;;;;784368;178;923899;-72
2022/06/12 05:11:36;;;;;;;27.17;20.03;;;;;;;;;;778811;178;953365;-72
2022/06/12 05:14:02;;;;;;;25.00;19.65;;;;;;;;;;780581;178;918887;-74
2022/06/12 05:16:28;;;;;;;21.00;18.73;;;;;;;;;;780933;178;919952;-73
2022/06/12 05:18:55;;;;;;;22.90;18.43;;;;;;;;;;776893;178;915131;-72
2022/06/12 05:21:20;;;;;;;21.90;18.17;;;;;;;;;;776941;178;920497;-73
2022/06/12 05:23:46;;;;;;;21.80;18.20;;;;;;;;;;776533;179;1093820;-72
2022/06/12 05:26:12;;;;;;;21.93;18.30;;;;;;;;;;783246;179;921760;-73
2022/06/12 05:28:38;;;;;;;18.80;16.90;;;;;;;;;;778736;179;913763;-73
2022/06/12 05:31:03;;;;;;;20.87;17.30;;;;;;;;;;778677;179;917070;-73
2022/06/12 05:33:29;;;;;;;19.17;15.80;;;;;;;;;;782249;179;915977;-71
2022/06/12 05:35:55;;;;;;;18.77;16.10;;;;;;;;;;778749;179;1120670;-73
2022/06/12 05:38:21;;;;;;;18.43;14.60;;;;;;;;;;774098;179;915549;-75
2022/06/12 05:40:47;;;;;;;16.77;14.63;;;;;;;;;;778937;179;914618;-73
2022/06/12 05:43:13;;;;;;;15.87;14.17;;;;;;;;;;782640;179;648641;-74
2022/06/12 05:45:39;;;;;;;17.90;14.13;;;;;;;;;;782923;179;633814;-73
2022/06/12 05:48:06;;;;;;;13.67;12.20;;;;;;;;;;781193;179;919140;-72
2022/06/12 05:50:31;;;;;;;15.67;11.60;;;;;;;;;;786105;179;625194;-72
2022/06/12 05:52:57;;;;;;;18.13;12.13;;;;;;;;;;780123;179;918355;-72
2022/06/12 05:55:23;;;;;;;15.87;11.27;;;;;;;;;;782395;179;644419;-74
2022/06/12 05:57:49;;;;;;;16.87;11.30;;;;;;;;;;784495;179;623528;-72
2022/06/12 06:00:16;;;;;;;12.37;11.20;;;;;;;;;;778490;179;919988;-75
2022/06/12 06:02:42;;;;;;;12.90;11.40;;;;;;;;;;777668;179;923181;-75
2022/06/12 06:05:08;;;;;;;11.13;9.97;;;;;;;;;;777237;179;982668;-74
2022/06/12 06:07:34;;;;;;;12.43;10.27;;;;;;;;;;778080;179;647236;-75
2022/06/12 06:10:00;;;;;;;12.83;10.03;;;;;;;;;;780968;179;627689;-75
2022/06/12 06:12:26;;;;;;;11.50;10.30;;;;;;;;;;782004;179;616989;-75
2022/06/12 06:14:52;;;;;;;14.37;10.17;;;;;;;;;;787359;179;623690;-76
2022/06/12 06:17:17;;;;;;;14.43;10.90;;;;;;;;;;785374;178;633386;-75
2022/06/12 06:19:43;;;;;;;10.47;8.80;;;;;;;;;;783789;178;649603;-75
2022/06/12 06:22:09;;;;;;;12.03;9.10;;;;;;;;;;787417;178;613974;-75
2022/06/12 06:24:35;;;;;;;14.47;9.53;;;;;;;;;;784592;178;623002;-75
2022/06/12 06:27:01;;;;;;;12.90;8.47;;;;;;;;;;783709;178;621593;-77
2022/06/12 06:29:27;;;;;;;10.10;5.93;;;;;;;;;;782467;178;673567;-76
2022/06/12 06:31:54;;;;;;;9.07;6.50;;;;;;;;;;781213;178;816253;-74
2022/06/12 06:34:18;;;;;;;10.87;6.80;;;;;;;;;;780334;179;918672;-76
2022/06/12 06:36:44;;;;;;;11.00;6.25;;;;;;;;;;780297;179;825477;-75
2022/06/12 06:39:10;;;;;;;11.17;6.60;;;;;;;;;;785082;179;918896;-75
2022/06/12 06:41:36;;;;;;;38.70;8.60;;;;;;;;;;780853;179;918362;-75
2022/06/12 06:46:33;;;;;;;8.77;6.13;;;;;;;;;;784083;179;826334;-75
2022/06/12 06:48:59;;;;;;;11.80;6.43;;;;;;;;;;783162;179;642731;-76
2022/06/12 06:51:25;;;;;;;10.83;8.03;;;;;;;;;;780502;179;918738;-77
2022/06/12 06:53:51;;;;;;;8.67;5.83;;;;;;;;;;778665;179;803070;-77
2022/06/12 06:56:17;;;;;;;11.67;4.80;;;;;;;;;;785803;179;629879;-78
2022/06/12 06:58:43;;;;;;;6.23;4.37;;;;;;;;;;781913;179;618164;-75
2022/06/12 07:01:08;;;;;;;9.60;5.37;;;;;;;;;;779757;179;870029;-77
2022/06/12 07:03:34;;;;;;;6.30;5.03;;;;;;;;;;785465;179;816776;-75
2022/06/12 07:06:00;;;;;;;7.70;4.83;;;;;;;;;;780707;179;919505;-75
2022/06/12 07:08:26;;;;;;;8.00;4.97;;;;;;;;;;779252;179;918715;-72
2022/06/12 07:10:52;;;;;;;5.60;4.13;;;;;;;;;;782827;179;918571;-72
2022/06/12 07:13:18;;;;;;;6.20;4.70;;;;;;;;;;779838;179;919144;-76
2022/06/12 07:15:43;;;;;;;7.70;4.17;;;;;;;;;;780192;179;919138;-74
2022/06/12 07:18:09;;;;;;;10.00;4.68;;;;;;;;;;775585;179;927470;-73
2022/06/12 07:20:35;;;;;;;5.57;4.13;;;;;;;;;;780650;179;918181;-78
2022/06/12 07:23:03;;;;;;;10.20;4.53;;;;;;;;;;779782;179;646199;-76
2022/06/12 07:25:27;;;;;;;9.73;4.50;;;;;;;;;;781307;178;664815;-78
2022/06/12 07:27:53;;;;;;;9.80;6.43;;;;;;;;;;789650;178;639444;-79
2022/06/12 07:30:19;;;;;;;11.70;6.50;;;;;;;;;;785890;178;634970;-75
2022/06/12 07:32:45;;;;;;;11.30;6.00;;;;;;;;;;783118;178;632791;-75
2022/06/12 07:35:10;;;;;;;11.07;6.33;;;;;;;;;;785970;178;626968;-77
2022/06/12 07:37:36;;;;;;;13.00;7.20;;;;;;;;;;783738;178;651252;-76
2022/06/12 07:40:02;;;;;;;10.80;7.40;;;;;;;;;;781535;178;910808;-78
2022/06/12 07:42:28;;;;;;;16.37;7.33;;;;;;;;;;782301;178;621878;-77
2022/06/12 07:44:54;;;;;;;11.47;7.00;;;;;;;;;;781103;179;633450;-74
2022/06/12 07:47:20;;;;;;;14.13;6.97;;;;;;;;;;780930;179;643135;-76
2022/06/12 07:49:46;;;;;;;8.90;6.10;;;;;;;;;;781963;179;630204;-76
2022/06/12 07:52:12;;;;;;;9.50;6.40;;;;;;;;;;787280;179;617380;-76
2022/06/12 07:54:37;;;;;;;11.10;6.50;;;;;;;;;;781556;179;814075;-75
2022/06/12 07:57:03;;;;;;;8.63;5.93;;;;;;;;;;781482;179;814067;-76
2022/06/12 07:59:29;;;;;;;11.20;5.63;;;;;;;;;;785383;179;663957;-80
2022/06/12 08:01:55;;;;;;;12.73;5.93;;;;;;;;;;781785;179;814268;-79
2022/06/12 08:04:21;;;;;;;13.70;5.43;;;;;;;;;;783330;179;638456;-74
2022/06/12 08:06:47;;;;;;;7.57;4.17;;;;;;;;;;781934;179;634579;-77
2022/06/12 08:09:13;;;;;;;12.17;5.60;;;;;;;;;;780177;179;635477;-76
2022/06/12 08:11:39;;;;;;;6.70;3.97;;;;;;;;;;781904;179;630092;-79
2022/06/12 08:14:04;;;;;;;8.23;3.93;;;;;;;;;;779010;179;623193;-79
2022/06/12 08:16:30;;;;;;;8.43;4.40;;;;;;;;;;786172;179;637793;-74
2022/06/12 08:18:57;;;;;;;7.70;3.87;;;;;;;;;;782384;179;652001;-72
2022/06/12 08:21:22;;;;;;;7.50;4.50;;;;;;;;;;781399;179;729106;-76
2022/06/12 08:23:48;;;;;;;4.60;4.00;;;;;;;;;;784964;179;630203;-73
2022/06/12 08:26:14;;;;;;;5.33;4.60;;;;;;;;;;780724;179;773154;-78
2022/06/12 08:28:40;;;;;;;13.40;4.73;;;;;;;;;;781999;179;655319;-79
2022/06/12 08:31:06;;;;;;;7.83;3.90;;;;;;;;;;785752;179;622248;-78
2022/06/12 08:33:32;;;;;;;6.87;4.00;;;;;;;;;;779656;179;643604;-75
2022/06/12 08:35:57;;;;;;;7.13;3.77;;;;;;;;;;780876;179;630537;-76
2022/06/12 08:38:23;;;;;;;7.93;4.03;;;;;;;;;;782175;177;836150;-74
2022/06/12 08:40:49;;;;;;;5.27;3.03;;;;;;;;;;788016;178;637511;-77
2022/06/12 08:43:16;;;;;;;3.77;2.93;;;;;;;;;;782733;178;630560;-76
2022/06/12 08:45:42;;;;;;;5.20;3.03;;;;;;;;;;783647;178;629565;-75
2022/06/12 08:48:08;;;;;;;3.60;2.90;;;;;;;;;;787255;178;629209;-80
2022/06/12 08:50:35;;;;;;;7.80;3.20;;;;;;;;;;783867;178;633599;-73
2022/06/12 08:53:06;;;;;;;4.20;3.17;;;;;;;;;;783339;178;634317;-71
2022/06/12 08:55:32;;;;;;;18.27;9.90;;;;;;;;;;782366;178;637798;-74
2022/06/12 08:58:03;;;;;;;11.27;7.53;;;;;;;;;;784811;179;623472;-76
2022/06/12 09:00:28;;;;;;;12.60;7.57;;;;;;;;;;779783;179;737822;-73
2022/06/12 09:02:55;;;;;;;8.90;4.93;;;;;;;;;;780249;179;773544;-76
2022/06/12 09:05:21;;;;;;;8.27;4.95;;;;;;;;;;783566;179;631331;-75
2022/06/12 09:08:02;;;;;;;7.40;3.17;;;;;;;;;;780434;179;620600;-74
2022/06/12 09:10:29;;;;;;;6.03;3.30;;;;;;;;;;781628;179;630828;-75
2022/06/12 09:13:05;;;;;;;6.93;3.10;;;;;;;;;;781932;179;639741;-76
2022/06/12 09:15:32;;;;;;;4.43;2.83;;;;;;;;;;781985;179;622281;-74
2022/06/12 09:18:00;;;;;;;6.10;3.17;;;;;;;;;;784493;179;658878;-77
2022/06/12 09:20:43;;;;;;;4.83;2.73;;;;;;;;;;782755;179;616615;-78
2022/06/12 09:23:14;;;;;;;5.20;2.50;;;;;;;;;;781425;179;672988;-76
2022/06/12 09:25:50;;;;;;;4.75;3.40;;;;;;;;;;778068;179;918525;-76
2022/06/12 09:28:22;;;;;;;5.83;3.30;;;;;;;;;;779122;179;918718;-75
2022/06/12 09:30:48;;;;;;;5.37;2.70;;;;;;;;;;779237;179;839229;-77
2022/06/12 09:33:28;;;;;;;4.10;2.43;;;;;;;;;;784623;179;688442;-76
2022/06/12 09:36:00;;;;;;;3.70;3.03;;;;;;;;;;783979;179;625784;-75
2022/06/12 09:38:29;;;;;;;6.60;2.77;;;;;;;;;;783745;179;625936;-77
2022/06/12 09:40:55;;;;;;;5.23;3.27;;;;;;;;;;781078;179;627612;-80
2022/06/12 09:43:39;;;;;;;5.60;2.97;;;;;;;;;;781291;179;639183;-76
2022/06/12 09:46:25;;;;;;;7.83;2.80;;;;;;;;;;780945;179;625806;-77
2022/06/12 09:48:54;;;;;;;3.03;2.73;;;;;;;;;;778565;178;628205;-75
2022/06/12 09:51:26;;;;;;;5.60;3.17;;;;;;;;;;783932;178;644592;-76
2022/06/12 09:53:52;;;;;;;8.20;4.93;;;;;;;;;;782463;178;613520;-77
2022/06/12 09:56:20;;;;;;;5.03;3.00;;;;;;;;;;785886;178;710141;-74
2022/06/12 09:58:47;;;;;;;5.73;3.50;;;;;;;;;;781598;178;719211;-75
2022/06/12 10:01:14;;;;;;;10.37;5.40;;;;;;;;;;785063;178;622054;-75
2022/06/12 10:03:39;;;;;;;8.77;5.27;;;;;;;;;;782181;178;668269;-75
2022/06/12 10:06:07;;;;;;;9.67;3.10;;;;;;;;;;784150;178;620518;-75
2022/06/12 10:08:36;;;;;;;4.40;3.00;;;;;;;;;;780905;179;734558;-74
2022/06/12 10:11:02;;;;;;;6.20;3.27;;;;;;;;;;786599;179;623859;-76
2022/06/12 10:13:29;;;;;;;4.80;3.27;;;;;;;;;;782540;179;664555;-73
2022/06/12 10:15:56;;;;;;;5.13;3.70;;;;;;;;;;782502;179;667125;-76
2022/06/12 10:18:35;;;;;;;5.82;3.42;;;;;;;;;;784451;179;641227;-75
2022/06/12 10:21:01;;;;;;;5.27;3.03;;;;;;;;;;780766;179;628767;-75
2022/06/12 10:23:26;;;;;;;15.80;6.97;;;;;;;;;;781965;179;644828;-77
2022/06/12 10:25:52;;;;;;;8.07;5.03;;;;;;;;;;780657;179;637057;-76
2022/06/12 10:28:18;;;;;;;8.80;3.43;;;;;;;;;;781874;179;644024;-75
2022/06/12 10:30:44;;;;;;;4.10;3.17;;;;;;;;;;778989;179;629043;-78
2022/06/12 10:33:14;;;;;;;5.23;3.10;;;;;;;;;;781439;179;640103;-77
2022/06/12 10:35:45;;;;;;;7.30;3.30;;;;;;;;;;780628;179;702217;-77
2022/06/12 10:38:11;;;;;;;4.72;2.78;;;;;;;;;;782410;179;675882;-73
2022/06/12 10:40:37;;;;;;;7.63;3.40;;;;;;;;;;777800;179;634075;-75
2022/06/12 10:43:03;;;;;;;3.53;3.13;;;;;;;;;;783041;179;637664;-76
2022/06/12 10:45:31;;;;;;;6.65;3.03;;;;;;;;;;782118;179;833540;-77
2022/06/12 10:47:57;;;;;;;14.90;3.47;;;;;;;;;;788217;179;632971;-74
2022/06/12 10:50:23;;;;;;;7.73;4.17;;;;;;;;;;783590;179;637607;-73
2022/06/12 10:52:54;;;;;;;7.60;2.70;;;;;;;;;;781894;179;666232;-70
2022/06/12 10:55:21;;;;;;;5.00;3.40;;;;;;;;;;780159;179;628925;-74
2022/06/12 10:57:51;;;;;;;3.33;2.60;;;;;;;;;;782859;179;632455;-73
2022/06/12 11:00:14;;;;;;;5.80;2.90;;;;;;;;;;781345;176;632287;-75
2022/06/12 11:02:44;;;;;;;5.17;3.37;;;;;;;;;;783737;178;622684;-75
2022/06/12 11:05:30;;;;;;;4.10;3.50;;;;;;;;;;787497;178;632054;-75
2022/06/12 11:08:15;;;;;;;18.23;9.90;;;;;;;;;;782363;178;645589;-73
2022/06/12 11:10:43;;;;;;;5.63;2.97;;;;;;;;;;764675;179;622380;-77
2022/06/12 11:13:10;;;;;;;4.70;3.40;;;;;;;;;;786915;178;665196;-77
2022/06/12 11:15:50;;;;;;;3.83;2.60;;;;;;;;;;784011;178;625987;-74
2022/06/12 11:18:24;;;;;;;4.73;3.70;;;;;;;;;;779299;178;816077;-76
2022/06/12 11:21:08;;;;;;;10.03;4.17;;;;;;;;;;783859;179;629705;-76
2022/06/12 11:23:33;;;;;;;20.37;11.30;;;;;;;;;;783572;178;802307;-77
2022/06/12 11:26:05;;;;;;;11.20;3.60;;;;;;;;;;780837;179;918861;-76
2022/06/12 11:28:31;;;;;;;5.87;2.90;;;;;;;;;;783169;179;627394;-80
2022/06/12 11:31:02;;;;;;;7.07;3.10;;;;;;;;;;782274;179;636407;-77
2022/06/12 11:33:43;;;;;;;5.30;3.60;;;;;;;;;;781257;179;627524;-74
2022/06/12 11:36:12;;;;;;;5.77;3.10;;;;;;;;;;781753;179;627313;-75
2022/06/12 11:38:39;;;;;;;6.73;3.53;;;;;;;;;;780015;179;628667;-77
2022/06/12 11:41:05;;;;;;;8.87;5.03;;;;;;;;;;785365;179;625125;-73
2022/06/12 11:43:34;;;;;;;10.97;4.83;;;;;;;;;;782817;179;617485;-74
2022/06/12 11:46:16;;;;;;;7.43;3.87;;;;;;;;;;784280;179;632597;-77
2022/06/12 11:48:56;;;;;;;6.03;2.97;;;;;;;;;;779904;179;738815;-76
2022/06/12 11:51:23;;;;;;;4.30;3.47;;;;;;;;;;781517;179;645118;-78
2022/06/12 11:54:05;;;;;;;5.40;3.50;;;;;;;;;;783738;179;626685;-77
2022/06/12 11:56:36;;;;;;;7.27;3.90;;;;;;;;;;783892;179;615889;-77
2022/06/12 11:59:03;;;;;;;4.90;4.10;;;;;;;;;;786094;178;630226;-75
2022/06/12 12:01:31;;;;;;;10.43;6.07;;;;;;;;;;781484;179;647237;-74
2022/06/12 12:03:58;;;;;;;6.77;4.50;;;;;;;;;;782756;179;614764;-75
2022/06/12 12:06:24;;;;;;;15.17;6.80;;;;;;;;;;784729;179;617192;-78
2022/06/12 12:08:53;;;;;;;10.23;6.30;;;;;;;;;;782308;179;632958;-78
2022/06/12 12:11:20;;;;;;;5.00;3.90;;;;;;;;;;784305;179;625613;-77
2022/06/12 12:13:46;;;;;;;9.20;4.03;;;;;;;;;;784948;178;660737;-79
2022/06/12 12:16:14;;;;;;;6.20;4.07;;;;;;;;;;790351;178;623379;-76
2022/06/12 12:18:41;;;;;;;5.60;3.87;;;;;;;;;;784541;178;632578;-76
2022/06/12 12:21:07;;;;;;;5.60;3.83;;;;;;;;;;783728;178;609156;-77
2022/06/12 12:23:33;;;;;;;4.43;3.67;;;;;;;;;;786225;178;633773;-78
2022/06/12 12:26:03;;;;;;;13.07;4.13;;;;;;;;;;780613;178;663193;-74
2022/06/12 12:28:31;;;;;;;7.40;3.73;;;;;;;;;;780732;178;728406;-77
2022/06/12 12:30:58;;;;;;;10.90;4.80;;;;;;;;;;781698;178;629548;-76
2022/06/12 12:33:23;;;;;;;4.60;3.50;;;;;;;;;;785297;179;618734;-76
2022/06/12 12:43:24;;;;;;;8.40;4.87;;;;;;;;;;787182;179;617361;-78
2022/06/12 12:45:51;;;;;;;14.70;6.97;;;;;;;;;;784920;179;616591;-75
2022/06/12 12:48:16;;;;;;;25.07;12.87;;;;;;;;;;782640;179;632449;-78
2022/06/12 12:50:43;;;;;;;24.63;11.27;;;;;;;;;;783037;179;622628;-77
2022/06/12 12:53:08;;;;;;;28.10;12.80;;;;;;;;;;779883;179;632924;-76
2022/06/12 12:55:35;;;;;;;12.10;6.07;;;;;;;;;;781833;179;638313;-75
2022/06/12 12:58:00;;;;;;;10.23;5.27;;;;;;;;;;781738;179;626662;-78
2022/06/12 13:00:26;;;;;;;6.90;4.87;;;;;;;;;;785631;179;632468;-76
2022/06/12 13:02:53;;;;;;;11.10;5.00;;;;;;;;;;781846;179;627119;-76
2022/06/12 13:05:19;;;;;;;7.73;4.83;;;;;;;;;;780938;179;677561;-75
2022/06/12 13:07:50;;;;;;;7.17;4.17;;;;;;;;;;784098;179;616764;-76
2022/06/12 13:10:21;;;;;;;9.23;4.73;;;;;;;;;;782944;179;639996;-77
2022/06/12 13:12:58;;;;;;;7.10;4.50;;;;;;;;;;781754;179;627573;-78
2022/06/12 13:15:27;;;;;;;7.10;4.63;;;;;;;;;;780307;179;644714;-77
2022/06/12 13:18:09;;;;;;;10.27;4.00;;;;;;;;;;781946;179;647296;-76
2022/06/12 13:20:51;;;;;;;8.23;4.93;;;;;;;;;;782219;178;644205;-79
2022/06/12 13:23:19;;;;;;;5.93;4.30;;;;;;;;;;781666;178;654641;-79
2022/06/12 13:25:45;;;;;;;9.40;4.20;;;;;;;;;;788662;178;629595;-82
2022/06/12 13:28:16;;;;;;;5.90;4.47;;;;;;;;;;784539;178;737562;-77
2022/06/12 13:30:42;;;;;;;8.80;4.20;;;;;;;;;;783980;178;660147;-78
2022/06/12 13:33:09;;;;;;;6.43;3.77;;;;;;;;;;783861;178;620258;-75
2022/06/12 13:35:36;;;;;;;9.80;5.43;;;;;;;;;;786108;178;632737;-76
2022/06/12 13:38:01;;;;;;;6.60;4.20;;;;;;;;;;781942;178;634055;-70
2022/06/12 13:40:30;;;;;;;5.33;3.73;;;;;;;;;;782957;178;633898;-76
2022/06/12 13:43:00;;;;;;;7.23;4.23;;;;;;;;;;784667;179;729310;-76
2022/06/12 13:45:26;;;;;;;9.77;4.23;;;;;;;;;;785230;178;635737;-79
2022/06/12 13:47:52;;;;;;;10.50;4.17;;;;;;;;;;781217;179;644454;-75
2022/06/12 13:50:18;;;;;;;6.67;3.70;;;;;;;;;;781141;179;629088;-74
2022/06/12 13:52:45;;;;;;;7.63;3.70;;;;;;;;;;785162;179;640500;-75
2022/06/12 13:55:17;;;;;;;4.73;3.30;;;;;;;;;;783067;179;622254;-75
2022/06/12 13:57:43;;;;;;;5.50;4.07;;;;;;;;;;783015;179;618286;-74
2022/06/12 14:00:14;;;;;;;4.30;3.90;;;;;;;;;;781597;179;628581;-73
2022/06/12 14:02:40;;;;;;;5.37;3.90;;;;;;;;;;784821;179;623309;-74
2022/06/12 14:05:22;;;;;;;7.70;3.77;;;;;;;;;;783571;179;619939;-73
2022/06/12 14:07:47;;;;;;;6.50;3.60;;;;;;;;;;781932;179;642307;-74
2022/06/12 14:10:13;;;;;;;4.43;3.47;;;;;;;;;;782708;179;645487;-74
2022/06/12 14:12:39;;;;;;;4.27;3.00;;;;;;;;;;781019;179;669062;-73
2022/06/12 14:15:11;;;;;;;5.17;3.03;;;;;;;;;;778977;179;639240;-73
2022/06/12 14:17:37;;;;;;;3.87;3.20;;;;;;;;;;781956;178;649682;-74
2022/06/12 14:20:03;;;;;;;6.50;3.53;;;;;;;;;;780536;179;624841;-73
2022/06/12 14:22:32;;;;;;;5.97;3.20;;;;;;;;;;786297;179;619139;-73
2022/06/12 14:24:58;;;;;;;5.73;2.90;;;;;;;;;;781450;179;624374;-73
2022/06/12 14:27:24;;;;;;;4.53;3.30;;;;;;;;;;780855;179;635011;-74
2022/06/12 14:29:50;;;;;;;3.73;3.33;;;;;;;;;;780863;179;650867;-74
2022/06/12 14:32:17;;;;;;;6.73;5.67;;;;;;;;;;775376;179;633370;-73
2022/06/12 14:34:44;;;;;;;5.70;3.87;;;;;;;;;;781240;177;634936;-75
2022/06/12 14:37:16;;;;;;;5.47;3.43;;;;;;;;;;783364;178;641168;-73
2022/06/12 14:39:42;;;;;;;7.83;3.40;;;;;;;;;;786476;178;625067;-73
2022/06/12 14:42:09;;;;;;;11.30;3.53;;;;;;;;;;785514;178;646757;-75